Time,TemperatureF,DewpointF,PressureIn,WindDirection,WindDirectionDegrees,WindSpeedMPH,WindSpeedGustMPH,Humidity,HourlyPrecipIn,Conditions,Clouds,dailyrainin,SolarRadiationWatts/m^2,SoftwareType,DateUTC
2013-11-04 00:01:00,33.0,31.0,-100.00,North,351,2.0,16.0,94,0.00,,,0.00,0.000000,,2013-11-04 07:01:00,
2013-11-04 00:11:00,33.0,31.0,-100.00,North,351,2.0,16.0,94,0.00,,,0.00,0.000000,,2013-11-04 07:11:00,
2013-11-04 00:43:00,33.0,32.0,-100.00,SSE,156,0.0,4.0,96,0.00,,,0.00,0.000000,,2013-11-04 07:43:00,
2013-11-04 00:52:00,33.0,32.0,-100.00,SSE,156,0.0,4.0,96,0.00,,,0.00,0.000000,,2013-11-04 07:52:00,
2013-11-04 01:02:00,33.0,32.0,-100.00,SSE,156,0.0,4.0,96,0.00,,,0.00,0.000000,,2013-11-04 08:02:00,
2013-11-04 01:12:00,33.0,32.0,-100.00,SSE,156,0.0,4.0,96,0.00,,,0.00,0.000000,,2013-11-04 08:12:00,
2013-11-04 01:42:00,33.0,32.0,-100.00,SW,235,2.0,4.0,96,0.00,,,0.00,0.000000,,2013-11-04 08:42:00,
2013-11-04 01:52:00,33.0,32.0,-100.00,SW,235,2.0,4.0,96,0.00,,,0.00,0.000000,,2013-11-04 08:52:00,
2013-11-04 02:02:00,33.0,32.0,-100.00,SW,235,2.0,4.0,96,0.00,,,0.00,0.000000,,2013-11-04 09:02:00,
2013-11-04 02:12:00,33.0,32.0,-100.00,SW,235,2.0,4.0,96,0.00,,,0.00,0.000000,,2013-11-04 09:12:00,
2013-11-04 02:43:00,33.0,31.0,-100.00,SSW,213,4.0,7.0,94,0.00,,,0.00,0.000000,,2013-11-04 09:43:00,
2013-11-04 02:53:00,33.0,31.0,-100.00,SSW,213,4.0,7.0,94,0.00,,,0.00,0.000000,,2013-11-04 09:53:00,
2013-11-04 03:03:00,33.0,31.0,-100.00,SSW,213,4.0,7.0,94,0.00,,,0.00,0.000000,,2013-11-04 10:03:00,
2013-11-04 03:12:00,33.0,31.0,-100.00,SSW,213,4.0,7.0,94,0.00,,,0.00,0.000000,,2013-11-04 10:12:00,
2013-11-04 03:42:00,34.0,25.0,-100.00,West,269,4.0,13.0,70,0.01,,,0.01,0.000000,,2013-11-04 10:42:00,
2013-11-04 03:52:00,34.0,25.0,-100.00,West,269,4.0,13.0,70,0.01,,,0.01,0.000000,,2013-11-04 10:52:00,
2013-11-04 04:02:00,34.0,25.0,-100.00,West,269,4.0,13.0,70,0.01,,,0.01,0.000000,,2013-11-04 11:02:00,
2013-11-04 04:12:00,34.0,25.0,-100.00,West,269,4.0,13.0,70,0.01,,,0.01,0.000000,,2013-11-04 11:12:00,
2013-11-04 04:43:00,32.0,22.0,-100.00,WNW,288,4.0,9.0,67,0.00,,,0.01,0.000000,,2013-11-04 11:43:00,
2013-11-04 04:52:00,32.0,22.0,-100.00,WNW,288,4.0,9.0,67,0.00,,,0.01,0.000000,,2013-11-04 11:52:00,
2013-11-04 05:02:00,32.0,22.0,-100.00,WNW,288,4.0,9.0,67,0.00,,,0.01,0.000000,,2013-11-04 12:02:00,
2013-11-04 05:12:00,32.0,22.0,-100.00,WNW,288,4.0,9.0,67,0.00,,,0.01,0.000000,,2013-11-04 12:12:00,
2013-11-04 05:42:00,33.0,22.0,-100.00,West,273,8.0,15.0,63,0.00,,,0.01,0.000000,,2013-11-04 12:42:00,
2013-11-04 05:52:00,33.0,22.0,-100.00,West,273,8.0,15.0,63,0.00,,,0.01,0.000000,,2013-11-04 12:52:00,
2013-11-04 06:01:00,33.0,22.0,-100.00,West,273,8.0,15.0,63,0.00,,,0.01,0.000000,,2013-11-04 13:01:00,
2013-11-04 06:11:00,33.0,22.0,-100.00,West,273,8.0,15.0,63,0.00,,,0.01,0.000000,,2013-11-04 13:11:00,
2013-11-04 06:42:00,31.0,20.0,-100.00,West,277,8.0,17.0,64,0.00,,,0.01,0.000000,,2013-11-04 13:42:00,
2013-11-04 06:52:00,31.0,20.0,-100.00,West,277,8.0,17.0,64,0.00,,,0.01,0.000000,,2013-11-04 13:52:00,
2013-11-04 07:02:00,31.0,20.0,-100.00,West,277,8.0,17.0,64,0.00,,,0.01,0.000000,,2013-11-04 14:02:00,
2013-11-04 07:11:00,31.0,20.0,-100.00,West,277,8.0,17.0,64,0.00,,,0.01,0.000000,,2013-11-04 14:11:00,
2013-11-04 07:42:00,33.0,20.0,-100.00,North,350,3.0,15.0,59,0.00,,,0.01,11.000000,,2013-11-04 14:42:00,
2013-11-04 07:52:00,33.0,20.0,-100.00,North,350,3.0,15.0,59,0.00,,,0.01,11.000000,,2013-11-04 14:52:00,
2013-11-04 08:02:00,33.0,20.0,-100.00,North,350,3.0,15.0,59,0.00,,,0.01,11.000000,,2013-11-04 15:02:00,
2013-11-04 08:11:00,33.0,20.0,-100.00,North,350,3.0,15.0,59,0.00,,,0.01,11.000000,,2013-11-04 15:11:00,
2013-11-04 08:42:00,36.0,21.0,-100.00,West,271,5.0,11.0,55,0.00,,,0.01,144.000000,,2013-11-04 15:42:00,
2013-11-04 08:52:00,36.0,21.0,-100.00,West,271,5.0,11.0,55,0.00,,,0.01,144.000000,,2013-11-04 15:52:00,
2013-11-04 09:03:00,36.0,21.0,-100.00,West,271,5.0,11.0,55,0.00,,,0.01,144.000000,,2013-11-04 16:03:00,
2013-11-04 09:12:00,36.0,21.0,-100.00,West,271,5.0,11.0,55,0.00,,,0.01,144.000000,,2013-11-04 16:12:00,
2013-11-04 09:43:00,37.0,21.0,-100.00,WNW,293,6.0,12.0,52,0.00,,,0.01,241.000000,,2013-11-04 16:43:00,
2013-11-04 09:53:00,37.0,21.0,-100.00,WNW,293,6.0,12.0,52,0.00,,,0.01,241.000000,,2013-11-04 16:53:00,
2013-11-04 10:03:00,37.0,21.0,-100.00,WNW,293,6.0,12.0,52,0.00,,,0.01,241.000000,,2013-11-04 17:03:00,
2013-11-04 10:12:00,37.0,21.0,-100.00,WNW,293,6.0,12.0,52,0.00,,,0.01,241.000000,,2013-11-04 17:12:00,
2013-11-04 10:42:00,38.0,21.0,-100.00,SSW,200,8.0,15.0,50,0.00,,,0.01,297.000000,,2013-11-04 17:42:00,
2013-11-04 10:53:00,38.0,21.0,-100.00,SSW,200,8.0,15.0,50,0.00,,,0.01,297.000000,,2013-11-04 17:53:00,
2013-11-04 11:01:00,38.0,21.0,-100.00,SSW,200,8.0,15.0,50,0.00,,,0.01,297.000000,,2013-11-04 18:01:00,
2013-11-04 11:12:00,38.0,21.0,-100.00,SSW,200,8.0,15.0,50,0.00,,,0.01,297.000000,,2013-11-04 18:12:00,
2013-11-04 11:42:00,40.0,23.0,-100.00,SSW,206,9.0,17.0,50,0.00,,,0.01,388.000000,,2013-11-04 18:42:00,
2013-11-04 11:52:00,40.0,23.0,-100.00,SSW,206,9.0,17.0,50,0.00,,,0.01,388.000000,,2013-11-04 18:52:00,
2013-11-04 12:01:00,40.0,23.0,-100.00,SSW,206,9.0,17.0,50,0.00,,,0.01,388.000000,,2013-11-04 19:01:00,
2013-11-04 12:12:00,40.0,23.0,-100.00,SSW,206,9.0,17.0,50,0.00,,,0.01,388.000000,,2013-11-04 19:12:00,
2013-11-04 12:42:00,41.0,21.0,-100.00,SW,229,9.0,18.0,45,0.00,,,0.01,552.000000,,2013-11-04 19:42:00,
2013-11-04 12:52:00,41.0,21.0,-100.00,SW,229,9.0,18.0,45,0.00,,,0.01,552.000000,,2013-11-04 19:52:00,
2013-11-04 13:01:00,41.0,21.0,-100.00,SW,229,9.0,18.0,45,0.00,,,0.01,552.000000,,2013-11-04 20:01:00,
2013-11-04 13:11:00,41.0,21.0,-100.00,SW,229,9.0,18.0,45,0.00,,,0.01,552.000000,,2013-11-04 20:11:00,
2013-11-04 13:42:00,42.0,19.0,-100.00,SW,230,9.0,17.0,39,0.00,,,0.01,541.000000,,2013-11-04 20:42:00,
2013-11-04 13:52:00,42.0,19.0,-100.00,SW,230,9.0,17.0,39,0.00,,,0.01,541.000000,,2013-11-04 20:52:00,
2013-11-04 14:03:00,42.0,19.0,-100.00,SW,230,9.0,17.0,39,0.00,,,0.01,541.000000,,2013-11-04 21:03:00,
2013-11-04 14:12:00,42.0,19.0,-100.00,SW,230,9.0,17.0,39,0.00,,,0.01,541.000000,,2013-11-04 21:12:00,
2013-11-04 14:13:00,42.0,17.0,-100.00,SW,222,9.0,18.0,36,0.00,,,0.01,430.000000,,2013-11-04 21:13:00,
2013-11-04 14:45:00,42.0,17.0,-100.00,SW,222,9.0,18.0,36,0.00,,,0.01,430.000000,,2013-11-04 21:45:00,
2013-11-04 14:54:00,42.0,17.0,-100.00,SW,222,9.0,18.0,36,0.00,,,0.01,430.000000,,2013-11-04 21:54:00,
2013-11-04 15:04:00,42.0,17.0,-100.00,SW,222,9.0,18.0,36,0.00,,,0.01,430.000000,,2013-11-04 22:04:00,
2013-11-04 15:43:00,40.0,13.0,-100.00,SSW,193,7.0,15.0,33,0.00,,,0.01,246.000000,,2013-11-04 22:43:00,
2013-11-04 15:53:00,40.0,13.0,-100.00,SSW,193,7.0,15.0,33,0.00,,,0.01,246.000000,,2013-11-04 22:53:00,
2013-11-04 16:03:00,40.0,13.0,-100.00,SSW,193,7.0,15.0,33,0.00,,,0.01,246.000000,,2013-11-04 23:03:00,
2013-11-04 16:43:00,38.0,17.0,-100.00,SSW,193,6.0,15.0,42,0.00,,,0.01,81.000000,,2013-11-04 23:43:00,
2013-11-04 16:53:00,38.0,17.0,-100.00,SSW,193,6.0,15.0,42,0.00,,,0.01,81.000000,,2013-11-04 23:53:00,
2013-11-04 17:02:00,38.0,17.0,-100.00,SSW,193,6.0,15.0,42,0.00,,,0.01,81.000000,,2013-11-05 00:02:00,
2013-11-04 17:12:00,38.0,17.0,-100.00,SSW,193,6.0,15.0,42,0.00,,,0.01,81.000000,,2013-11-05 00:12:00,
2013-11-04 17:42:00,35.0,16.0,-100.00,WSW,238,3.0,7.0,46,0.00,,,0.01,8.000000,,2013-11-05 00:42:00,
2013-11-04 17:52:00,35.0,16.0,-100.00,WSW,238,3.0,7.0,46,0.00,,,0.01,8.000000,,2013-11-05 00:52:00,
2013-11-04 18:02:00,35.0,16.0,-100.00,WSW,238,3.0,7.0,46,0.00,,,0.01,8.000000,,2013-11-05 01:02:00,
2013-11-04 18:11:00,35.0,16.0,-100.00,WSW,238,3.0,7.0,46,0.00,,,0.01,8.000000,,2013-11-05 01:11:00,
2013-11-04 18:42:00,32.0,20.0,-100.00,NNW,328,4.0,8.0,60,0.00,,,0.01,0.000000,,2013-11-05 01:42:00,
2013-11-04 18:52:00,32.0,20.0,-100.00,NNW,328,4.0,8.0,60,0.00,,,0.01,0.000000,,2013-11-05 01:52:00,
2013-11-04 19:02:00,32.0,20.0,-100.00,NNW,328,4.0,8.0,60,0.00,,,0.01,0.000000,,2013-11-05 02:02:00,
2013-11-04 19:11:00,32.0,20.0,-100.00,NNW,328,4.0,8.0,60,0.00,,,0.01,0.000000,,2013-11-05 02:11:00,
2013-11-04 19:42:00,33.0,20.0,-100.00,NNE,14,4.0,11.0,59,0.00,,,0.01,0.000000,,2013-11-05 02:42:00,
2013-11-04 19:52:00,33.0,20.0,-100.00,NNE,14,4.0,11.0,59,0.00,,,0.01,0.000000,,2013-11-05 02:52:00,
2013-11-04 20:02:00,33.0,20.0,-100.00,NNE,14,4.0,11.0,59,0.00,,,0.01,0.000000,,2013-11-05 03:02:00,
2013-11-04 20:12:00,33.0,20.0,-100.00,NNE,14,4.0,11.0,59,0.00,,,0.01,0.000000,,2013-11-05 03:12:00,
2013-11-04 20:13:00,33.0,21.0,-100.00,North,2,5.0,9.0,62,0.00,,,0.01,0.000000,,2013-11-05 03:13:00,
2013-11-04 20:44:00,33.0,21.0,-100.00,North,2,5.0,9.0,62,0.00,,,0.01,0.000000,,2013-11-05 03:44:00,
2013-11-04 20:54:00,33.0,21.0,-100.00,North,2,5.0,9.0,62,0.00,,,0.01,0.000000,,2013-11-05 03:54:00,
2013-11-04 21:03:00,33.0,21.0,-100.00,North,2,5.0,9.0,62,0.00,,,0.01,0.000000,,2013-11-05 04:03:00,
2013-11-04 21:13:00,32.0,22.0,-100.00,NNE,23,4.0,6.0,65,0.00,,,0.01,0.000000,,2013-11-05 04:13:00,
2013-11-04 21:43:00,32.0,22.0,-100.00,NNE,23,4.0,6.0,65,0.00,,,0.01,0.000000,,2013-11-05 04:43:00,
2013-11-04 21:53:00,32.0,22.0,-100.00,NNE,23,4.0,6.0,65,0.00,,,0.01,0.000000,,2013-11-05 04:53:00,
2013-11-04 22:03:00,32.0,22.0,-100.00,NNE,23,4.0,6.0,65,0.00,,,0.01,0.000000,,2013-11-05 05:03:00,
2013-11-04 22:13:00,29.0,25.0,-100.00,NNE,21,6.0,9.0,84,0.00,,,0.01,0.000000,,2013-11-05 05:13:00,
2013-11-04 22:44:00,29.0,25.0,-100.00,NNE,21,6.0,9.0,84,0.00,,,0.01,0.000000,,2013-11-05 05:44:00,
2013-11-04 22:54:00,29.0,25.0,-100.00,NNE,21,6.0,9.0,84,0.00,,,0.01,0.000000,,2013-11-05 05:54:00,
2013-11-04 23:03:00,29.0,25.0,-100.00,NNE,21,6.0,9.0,84,0.00,,,0.01,0.000000,,2013-11-05 06:03:00,
2013-11-04 23:42:00,28.0,26.0,-100.00,NNE,21,6.0,9.0,92,0.00,,,0.01,0.000000,,2013-11-05 06:42:00,
2013-11-04 23:52:00,28.0,26.0,-100.00,NNE,21,6.0,9.0,92,0.00,,,0.01,0.000000,,2013-11-05 06:52:00,